Time;durP1;ratioP1;P1;durP2;ratioP2;P2;SDS_P1;SDS_P2;PMS_P1;PMS_P2;Temp;Humidity;BMP_temperature;BMP_pressure;BME280_temperature;BME280_humidity;BME280_pressure;Samples;Min_cycle;Max_cycle;Signal;HPM_P1;HPM_P2
2023/06/10 00:01:49;;;;;;;8.02;4.95;;;17.80;99.90;;;;;;5048845;28;20398;-79
2023/06/10 00:04:16;;;;;;;8.13;4.90;;;17.70;99.90;;;;;;5048885;28;20042;-80
2023/06/10 00:06:49;;;;;;;8.25;4.82;;;17.60;99.90;;;;;;5032378;28;20497;-80
2023/06/10 00:09:15;;;;;;;7.07;4.30;;;17.60;99.90;;;;;;5049132;28;20042;-80
2023/06/10 00:11:41;;;;;;;8.30;5.03;;;17.60;99.90;;;;;;5033330;28;20034;-80
2023/06/10 00:14:07;;;;;;;15.52;5.18;;;17.50;99.90;;;;;;5033794;28;20525;-80
2023/06/10 00:16:33;;;;;;;8.20;5.00;;;17.50;99.90;;;;;;5048635;28;20068;-80
2023/06/10 00:19:03;;;;;;;8.15;4.50;;;17.50;99.90;;;;;;5049085;28;20467;-80
2023/06/10 00:21:39;;;;;;;5.80;4.53;;;17.40;99.90;;;;;;5032136;28;20045;-79
2023/06/10 00:24:11;;;;;;;7.28;4.97;;;17.40;99.90;;;;;;5032325;28;20042;-79
2023/06/10 00:26:41;;;;;;;6.97;4.63;;;17.30;99.90;;;;;;5048619;28;20042;-79
2023/06/10 00:29:07;;;;;;;7.07;4.45;;;17.30;99.90;;;;;;5031576;28;20053;-78
2023/06/10 00:31:35;;;;;;;6.47;4.53;;;17.30;99.90;;;;;;5048130;28;20152;-79
2023/06/10 00:34:01;;;;;;;8.38;5.00;;;17.20;99.90;;;;;;5031513;28;20065;-79
2023/06/10 00:36:26;;;;;;;6.22;4.80;;;17.20;99.90;;;;;;5023642;28;20560;-79
2023/06/10 00:38:52;;;;;;;7.85;5.00;;;17.20;99.90;;;;;;5048455;28;20123;-79
2023/06/10 00:41:18;;;;;;;7.80;5.07;;;17.10;99.90;;;;;;5047691;28;20085;-79
2023/06/10 00:43:44;;;;;;;7.50;4.78;;;17.10;99.90;;;;;;5031380;28;20493;-79
2023/06/10 00:46:11;;;;;;;9.07;5.70;;;17.00;99.90;;;;;;5047687;28;20467;-79
2023/06/10 00:48:38;;;;;;;7.85;5.40;;;17.00;99.90;;;;;;5031610;28;20092;-79
2023/06/10 00:51:05;;;;;;;7.88;5.72;;;16.90;99.90;;;;;;5047941;28;20404;-79
2023/06/10 00:53:32;;;;;;;9.30;5.75;;;16.90;99.90;;;;;;5031068;28;20034;-79
2023/06/10 00:55:58;;;;;;;9.07;6.00;;;16.80;99.90;;;;;;5031183;28;20045;-79
2023/06/10 00:58:25;;;;;;;9.07;6.30;;;16.80;99.90;;;;;;5031393;28;20116;-79
2023/06/10 01:00:51;;;;;;;9.38;6.22;;;16.70;99.90;;;;;;5031171;28;20040;-80
2023/06/10 01:03:17;;;;;;;10.20;6.75;;;16.60;99.90;;;;;;5048207;28;20444;-79
2023/06/10 01:05:43;;;;;;;9.88;6.53;;;16.60;99.90;;;;;;5031415;28;20044;-79
2023/06/10 01:08:20;;;;;;;9.68;6.28;;;16.50;99.90;;;;;;5031044;28;20041;-79
2023/06/10 01:10:55;;;;;;;9.02;6.68;;;16.40;99.90;;;;;;5024767;28;20034;-80
2023/06/10 01:13:23;;;;;;;9.70;6.45;;;16.40;99.90;;;;;;5031133;28;20041;-80
2023/06/10 01:15:50;;;;;;;8.38;6.25;;;16.20;99.90;;;;;;5031162;28;20044;-80
2023/06/10 01:18:16;;;;;;;10.95;7.10;;;16.20;99.90;;;;;;5031378;28;20041;-79
2023/06/10 01:20:44;;;;;;;9.85;6.47;;;16.20;99.90;;;;;;5047374;28;20037;-79
2023/06/10 01:23:10;;;;;;;8.93;6.15;;;16.10;99.90;;;;;;5030631;28;20432;-79
2023/06/10 01:25:40;;;;;;;8.75;6.47;;;16.10;99.90;;;;;;5026856;28;20029;-79
2023/06/10 01:28:47;;;;;;;8.43;6.10;;;16.00;99.90;;;;;;5030891;28;20110;-79
2023/06/10 01:31:45;;;;;;;8.95;5.97;;;16.00;99.90;;;;;;5029609;28;20053;-80
2023/06/10 01:34:14;;;;;;;8.55;6.05;;;15.90;99.90;;;;;;5027425;28;20500;-79
2023/06/10 01:36:42;;;;;;;8.20;6.57;;;15.90;99.90;;;;;;5030853;28;20381;-79
2023/06/10 01:39:11;;;;;;;9.00;6.47;;;15.80;99.90;;;;;;5027391;28;20068;-79
2023/06/10 01:41:37;;;;;;;10.55;7.15;;;15.80;99.90;;;;;;5046761;28;20041;-79
2023/06/10 01:44:03;;;;;;;8.95;7.18;;;15.70;99.90;;;;;;5047019;28;20535;-78
2023/06/10 01:46:28;;;;;;;11.20;7.50;;;15.70;99.90;;;;;;5046297;28;20045;-79
2023/06/10 01:48:54;;;;;;;9.25;7.45;;;15.70;99.90;;;;;;5021610;28;20556;-79
2023/06/10 01:51:19;;;;;;;10.15;8.05;;;15.60;99.90;;;;;;5029835;28;20211;-79
2023/06/10 01:53:45;;;;;;;10.60;7.57;;;15.60;99.90;;;;;;5030342;28;20040;-79
2023/06/10 01:56:16;;;;;;;11.52;8.10;;;15.50;99.90;;;;;;5030444;28;20623;-79
2023/06/10 01:58:42;;;;;;;11.55;8.02;;;15.50;99.90;;;;;;5046631;28;20041;-79
2023/06/10 02:01:07;;;;;;;11.02;7.65;;;15.40;99.90;;;;;;5046643;28;20118;-79
2023/06/10 02:03:33;;;;;;;10.32;7.53;;;15.40;99.90;;;;;;5046515;28;20355;-78
2023/06/10 02:05:58;;;;;;;13.23;8.25;;;15.40;99.90;;;;;;5029868;28;20509;-79
2023/06/10 02:08:24;;;;;;;11.27;8.32;;;15.30;99.90;;;;;;5046231;28;20124;-79
2023/06/10 02:10:49;;;;;;;13.23;8.38;;;15.30;99.90;;;;;;5046518;28;20029;-80
2023/06/10 02:13:15;;;;;;;11.23;7.70;;;15.30;99.90;;;;;;5030057;28;20033;-79
2023/06/10 02:15:40;;;;;;;10.38;7.00;;;15.20;99.90;;;;;;5046286;28;20038;-79
2023/06/10 02:18:06;;;;;;;10.10;6.80;;;15.20;99.90;;;;;;5046422;28;20042;-78
2023/06/10 02:20:31;;;;;;;9.35;5.78;;;15.10;99.90;;;;;;5046255;28;20033;-79
2023/06/10 02:22:58;;;;;;;7.93;5.85;;;15.00;99.90;;;;;;5046160;28;20045;-79
2023/06/10 02:25:24;;;;;;;8.07;5.53;;;15.00;99.90;;;;;;5031156;28;20565;-79
2023/06/10 02:27:49;;;;;;;10.55;5.22;;;14.90;99.90;;;;;;5046314;28;20469;-79
2023/06/10 02:30:15;;;;;;;6.63;4.68;;;14.90;99.90;;;;;;5029635;28;20045;-79
2023/06/10 02:32:41;;;;;;;9.05;5.45;;;14.90;99.90;;;;;;5029484;28;20034;-79
2023/06/10 02:35:06;;;;;;;6.55;4.70;;;14.90;99.90;;;;;;5029774;28;20512;-79
2023/06/10 02:37:32;;;;;;;8.35;4.70;;;14.90;99.90;;;;;;5046181;28;20523;-79
2023/06/10 02:39:57;;;;;;;9.60;4.57;;;14.90;99.90;;;;;;5046461;28;20072;-78
2023/06/10 02:42:23;;;;;;;8.18;4.63;;;14.80;99.90;;;;;;5045953;28;20052;-79
2023/06/10 02:44:48;;;;;;;8.52;4.32;;;14.80;99.90;;;;;;5029510;28;20049;-80
2023/06/10 02:47:14;;;;;;;7.80;4.30;;;14.80;99.90;;;;;;5045968;28;20045;-80
2023/06/10 02:49:40;;;;;;;8.45;4.70;;;14.70;99.90;;;;;;5046018;28;20136;-79
2023/06/10 02:52:06;;;;;;;6.43;3.92;;;14.70;99.90;;;;;;5045912;28;20048;-79
2023/06/10 02:54:32;;;;;;;7.68;4.13;;;14.70;99.90;;;;;;5045984;28;20043;-79
2023/06/10 02:56:58;;;;;;;6.43;4.15;;;14.70;99.90;;;;;;5029994;28;20042;-79
2023/06/10 02:59:23;;;;;;;7.15;3.92;;;14.60;99.90;;;;;;5049806;28;20068;-79
2023/06/10 03:01:49;;;;;;;7.05;3.88;;;14.60;99.90;;;;;;5049512;28;20037;-78
2023/06/10 03:04:14;;;;;;;7.00;4.10;;;14.50;99.90;;;;;;5049710;28;20041;-79
2023/06/10 03:06:45;;;;;;;6.43;4.22;;;14.50;99.90;;;;;;5049864;28;20049;-79
2023/06/10 03:09:11;;;;;;;7.28;3.92;;;14.50;99.90;;;;;;5033313;28;20038;-79
2023/06/10 03:11:36;;;;;;;6.90;4.00;;;14.50;99.90;;;;;;5049898;28;20037;-79
2023/06/10 03:14:02;;;;;;;9.30;4.88;;;14.50;99.90;;;;;;5032997;28;20045;-79
2023/06/10 03:16:27;;;;;;;8.07;4.30;;;14.50;99.90;;;;;;5049672;28;20512;-79
2023/06/10 03:18:53;;;;;;;7.15;4.50;;;14.50;99.90;;;;;;5049677;28;20049;-79
2023/06/10 03:21:20;;;;;;;6.95;4.50;;;14.50;99.90;;;;;;5049528;28;20041;-79
2023/06/10 03:23:45;;;;;;;8.82;4.22;;;14.50;99.90;;;;;;5032901;28;20040;-78
2023/06/10 03:26:14;;;;;;;8.93;4.55;;;14.50;99.90;;;;;;5049380;28;20054;-79
2023/06/10 03:28:40;;;;;;;9.07;4.03;;;14.50;99.90;;;;;;5032915;28;20045;-79
2023/06/10 03:31:05;;;;;;;9.48;4.72;;;14.50;99.90;;;;;;5049019;28;20045;-80
2023/06/10 03:33:32;;;;;;;6.10;4.00;;;14.50;99.90;;;;;;5032585;28;20496;-79
2023/06/10 03:35:58;;;;;;;10.38;4.30;;;14.50;99.90;;;;;;5032934;28;20043;-78
2023/06/10 03:38:24;;;;;;;9.00;4.50;;;14.50;99.90;;;;;;5032409;28;20492;-79
2023/06/10 03:40:49;;;;;;;9.82;4.93;;;14.50;99.90;;;;;;5032270;28;20037;-79
2023/06/10 03:43:15;;;;;;;8.48;5.07;;;14.60;99.90;;;;;;5049095;28;20587;-78
2023/06/10 03:45:41;;;;;;;10.10;5.60;;;14.60;99.90;;;;;;5048716;28;20125;-79
2023/06/10 03:48:07;;;;;;;8.82;6.13;;;14.60;99.90;;;;;;5048832;28;20128;-78
2023/06/10 03:50:33;;;;;;;8.80;6.38;;;14.50;99.90;;;;;;5032139;28;20044;-78
2023/06/10 03:52:59;;;;;;;12.02;6.72;;;14.50;99.90;;;;;;5031889;28;20037;-79
2023/06/10 03:55:25;;;;;;;9.07;6.47;;;14.60;99.90;;;;;;5032647;28;20413;-78
2023/06/10 03:57:50;;;;;;;9.20;7.13;;;14.60;99.90;;;;;;5048657;28;20045;-79
2023/06/10 04:00:17;;;;;;;10.27;6.63;;;14.60;99.90;;;;;;5048842;28;20568;-79
2023/06/10 04:02:48;;;;;;;11.35;6.90;;;14.70;99.90;;;;;;5031756;28;20033;-79
2023/06/10 04:05:14;;;;;;;14.38;6.70;;;14.60;99.90;;;;;;5031899;28;20259;-79
2023/06/10 04:07:42;;;;;;;10.88;5.25;;;14.70;99.90;;;;;;5031428;28;20394;-78
2023/06/10 04:10:08;;;;;;;11.00;5.57;;;14.70;99.90;;;;;;5048766;28;20041;-79
2023/06/10 04:12:34;;;;;;;11.57;5.32;;;14.70;99.90;;;;;;5032089;28;20037;-75
2023/06/10 04:15:00;;;;;;;8.45;4.75;;;14.70;99.90;;;;;;5032282;28;20411;-78
2023/06/10 04:17:26;;;;;;;10.95;4.97;;;14.70;99.90;;;;;;5031848;28;20041;-78
2023/06/10 04:19:52;;;;;;;9.68;4.55;;;14.80;99.90;;;;;;5048499;28;20041;-77
2023/06/10 04:22:18;;;;;;;6.82;4.43;;;14.80;99.90;;;;;;5031152;28;20041;-79
2023/06/10 04:24:44;;;;;;;12.80;5.00;;;14.90;99.90;;;;;;5048376;28;20447;-79
2023/06/10 04:27:10;;;;;;;11.95;5.07;;;14.90;99.90;;;;;;5044797;28;20042;-78
2023/06/10 04:29:36;;;;;;;10.90;4.80;;;15.00;99.90;;;;;;5039925;28;20112;-78
2023/06/10 04:32:01;;;;;;;10.13;5.07;;;15.00;99.90;;;;;;5047842;28;20557;-78
2023/06/10 04:34:28;;;;;;;10.15;5.35;;;15.00;99.90;;;;;;5031320;28;20042;-76
2023/06/10 04:36:53;;;;;;;10.48;4.88;;;15.10;99.90;;;;;;5031299;28;20122;-77
2023/06/10 04:39:19;;;;;;;10.23;5.47;;;15.20;99.90;;;;;;5030873;28;20470;-77
2023/06/10 04:41:45;;;;;;;11.38;5.40;;;15.20;99.90;;;;;;5030770;28;20047;-78
2023/06/10 04:44:11;;;;;;;8.55;4.85;;;15.30;99.90;;;;;;5047632;28;20048;-76
2023/06/10 04:46:37;;;;;;;8.82;5.10;;;15.30;99.90;;;;;;5030885;28;20037;-77
2023/06/10 04:49:02;;;;;;;11.02;5.70;;;15.40;99.90;;;;;;5047717;28;20412;-78
2023/06/10 04:51:28;;;;;;;10.15;5.07;;;15.40;99.90;;;;;;5030720;28;20097;-77
2023/06/10 04:53:53;;;;;;;8.88;4.78;;;15.50;99.90;;;;;;5031188;28;20048;-77
2023/06/10 04:56:20;;;;;;;11.05;5.53;;;15.60;99.90;;;;;;5031927;28;20098;-78
2023/06/10 04:58:45;;;;;;;11.45;5.20;;;15.70;99.90;;;;;;5047346;28;20044;-76
2023/06/10 05:01:11;;;;;;;14.60;5.15;;;15.70;99.90;;;;;;5030569;28;20128;-77
2023/06/10 05:03:36;;;;;;;8.68;5.13;;;15.80;99.90;;;;;;5030715;28;20049;-77
2023/06/10 05:06:02;;;;;;;11.63;4.78;;;15.90;99.90;;;;;;5030669;28;20107;-77
2023/06/10 05:08:27;;;;;;;9.32;5.05;;;15.90;99.90;;;;;;5047267;28;20120;-77
2023/06/10 05:10:53;;;;;;;9.80;5.03;;;16.00;99.90;;;;;;5046748;28;20034;-77
2023/06/10 05:13:18;;;;;;;9.75;4.90;;;16.10;99.90;;;;;;5030464;28;20087;-77
2023/06/10 05:15:45;;;;;;;10.48;5.22;;;16.10;99.90;;;;;;5046864;28;20034;-77
2023/06/10 05:18:12;;;;;;;14.20;5.22;;;16.20;99.90;;;;;;5046944;28;20512;-77
2023/06/10 05:20:38;;;;;;;8.90;5.00;;;16.30;99.90;;;;;;5027123;28;20483;-78
2023/06/10 05:23:03;;;;;;;8.32;4.75;;;16.40;99.90;;;;;;5046729;28;20069;-77
2023/06/10 05:25:33;;;;;;;11.90;5.03;;;16.40;99.90;;;;;;5046653;28;20045;-78
2023/06/10 05:27:59;;;;;;;9.82;4.97;;;16.50;99.90;;;;;;5030247;28;20509;-75
2023/06/10 05:30:25;;;;;;;8.35;5.03;;;16.60;99.90;;;;;;5046887;28;20505;-77
2023/06/10 05:32:52;;;;;;;10.32;5.43;;;16.60;99.90;;;;;;5046594;28;20690;-77
2023/06/10 05:35:18;;;;;;;11.38;5.45;;;16.70;99.90;;;;;;5046726;28;20034;-76
2023/06/10 05:37:44;;;;;;;9.50;4.75;;;16.80;99.90;;;;;;5046628;28;20091;-75
2023/06/10 05:40:10;;;;;;;8.85;5.00;;;16.80;99.90;;;;;;5030040;28;20102;-75
2023/06/10 05:42:35;;;;;;;14.38;5.32;;;16.90;99.90;;;;;;5028838;28;20048;-77
2023/06/10 05:45:02;;;;;;;9.77;5.10;;;16.90;99.90;;;;;;5029634;28;20068;-77
2023/06/10 05:47:27;;;;;;;9.35;5.10;;;17.00;99.90;;;;;;5027623;28;20076;-77
2023/06/10 05:49:53;;;;;;;8.95;5.63;;;17.10;99.90;;;;;;5013420;28;20056;-77
2023/06/10 05:52:18;;;;;;;9.40;5.05;;;17.10;99.90;;;;;;5029442;28;20390;-78
2023/06/10 05:54:44;;;;;;;11.75;5.30;;;17.20;99.90;;;;;;5029823;28;20533;-77
2023/06/10 05:57:10;;;;;;;8.65;5.10;;;17.20;99.90;;;;;;5046328;28;20037;-76
2023/06/10 05:59:36;;;;;;;9.95;5.53;;;17.30;99.90;;;;;;5029660;28;20072;-75
2023/06/10 06:02:01;;;;;;;8.75;5.05;;;17.30;99.90;;;;;;5029591;28;20091;-77
2023/06/10 06:04:27;;;;;;;9.65;5.32;;;17.40;99.90;;;;;;5046114;28;20040;-76
2023/06/10 06:06:52;;;;;;;10.48;5.38;;;17.50;99.90;;;;;;5046139;28;20044;-78
2023/06/10 06:09:18;;;;;;;11.75;5.00;;;17.60;99.90;;;;;;5029514;28;20080;-78
2023/06/10 06:11:43;;;;;;;9.63;5.38;;;17.70;99.90;;;;;;5029597;28;20084;-76
2023/06/10 06:14:09;;;;;;;10.10;5.50;;;17.90;99.90;;;;;;5046100;28;20037;-78
2023/06/10 06:16:35;;;;;;;8.68;4.90;;;17.90;99.90;;;;;;5029389;28;20037;-77
2023/06/10 06:19:00;;;;;;;12.93;5.28;;;18.00;99.90;;;;;;5045875;28;20033;-75
2023/06/10 06:21:26;;;;;;;11.00;5.82;;;18.10;99.90;;;;;;5028185;28;20041;-78
2023/06/10 06:23:51;;;;;;;10.13;5.35;;;18.20;99.90;;;;;;5044886;28;20435;-77
2023/06/10 06:26:17;;;;;;;10.65;5.88;;;18.20;99.90;;;;;;5045875;28;20068;-77
2023/06/10 06:28:42;;;;;;;7.65;5.28;;;18.30;99.90;;;;;;5046275;28;20512;-78
2023/06/10 06:31:08;;;;;;;10.35;5.63;;;18.30;99.90;;;;;;5029961;28;20042;-77
2023/06/10 06:33:33;;;;;;;10.55;5.57;;;18.50;99.90;;;;;;5033641;28;20068;-77
2023/06/10 06:36:00;;;;;;;9.00;5.40;;;18.50;99.90;;;;;;5049999;28;20085;-76
2023/06/10 06:38:26;;;;;;;12.60;5.65;;;18.60;99.90;;;;;;5033147;28;20099;-77
2023/06/10 06:40:51;;;;;;;11.80;5.40;;;18.60;99.90;;;;;;5033292;28;20038;-78
2023/06/10 06:43:18;;;;;;;9.30;4.85;;;18.70;99.90;;;;;;5033491;28;20038;-77
2023/06/10 06:45:44;;;;;;;9.80;5.10;;;18.90;99.90;;;;;;5050111;28;20049;-77
2023/06/10 06:48:11;;;;;;;7.85;5.00;;;19.00;99.90;;;;;;5034476;28;20045;-77
2023/06/10 06:50:37;;;;;;;8.85;4.90;;;19.10;99.90;;;;;;5033124;28;20037;-77
2023/06/10 06:53:03;;;;;;;8.68;4.90;;;19.20;99.90;;;;;;5049447;28;20130;-76
2023/06/10 06:55:29;;;;;;;10.20;4.82;;;19.20;99.90;;;;;;5049806;28;20048;-77
2023/06/10 06:57:55;;;;;;;9.93;4.85;;;19.30;99.90;;;;;;5033530;28;20038;-77
2023/06/10 07:00:21;;;;;;;7.50;4.90;;;19.50;99.90;;;;;;5049448;28;20045;-77
2023/06/10 07:02:47;;;;;;;8.88;5.00;;;19.50;99.90;;;;;;5032608;28;20041;-77
2023/06/10 07:05:12;;;;;;;7.55;4.72;;;19.70;99.90;;;;;;5049433;28;20044;-77
2023/06/10 07:07:38;;;;;;;9.27;4.70;;;19.80;99.90;;;;;;5032758;28;20496;-77
2023/06/10 07:10:03;;;;;;;9.10;5.28;;;19.90;99.90;;;;;;5049596;28;20037;-76
2023/06/10 07:12:29;;;;;;;10.27;4.85;;;20.00;99.90;;;;;;5048962;28;20041;-77
2023/06/10 07:14:54;;;;;;;12.35;4.95;;;20.10;99.90;;;;;;5031825;28;20544;-77
2023/06/10 07:17:20;;;;;;;8.75;4.88;;;20.20;99.90;;;;;;5049194;28;20055;-76
2023/06/10 07:19:46;;;;;;;9.38;4.70;;;20.20;99.90;;;;;;5032593;28;20398;-77
2023/06/10 07:22:11;;;;;;;7.88;4.75;;;20.30;99.90;;;;;;5048741;28;20041;-78
2023/06/10 07:24:37;;;;;;;8.27;4.57;;;20.40;99.90;;;;;;5032425;28;20048;-77
2023/06/10 07:27:03;;;;;;;7.15;4.55;;;20.40;99.90;;;;;;5016100;28;20049;-75
2023/06/10 07:29:28;;;;;;;7.78;4.03;;;20.40;99.90;;;;;;5032534;28;20042;-74
2023/06/10 07:31:54;;;;;;;8.00;4.65;;;20.50;99.90;;;;;;5031953;28;20033;-76
2023/06/10 07:34:20;;;;;;;8.77;4.32;;;20.70;99.90;;;;;;5048721;28;20102;-76
2023/06/10 07:36:45;;;;;;;8.27;4.57;;;20.70;99.90;;;;;;5048875;28;20139;-76
2023/06/10 07:39:11;;;;;;;9.35;4.60;;;20.90;99.90;;;;;;5047633;28;20231;-75
2023/06/10 07:41:36;;;;;;;9.85;4.40;;;21.00;99.90;;;;;;5048207;28;20056;-76
2023/06/10 07:44:02;;;;;;;8.48;4.90;;;21.10;99.90;;;;;;5031085;28;20037;-77
2023/06/10 07:46:28;;;;;;;8.07;4.80;;;21.20;99.90;;;;;;5032151;28;20492;-75
2023/06/10 07:48:54;;;;;;;10.07;4.90;;;21.20;99.90;;;;;;5032392;28;20566;-75
2023/06/10 07:51:21;;;;;;;7.63;4.57;;;21.30;99.90;;;;;;5031454;28;20041;-77
2023/06/10 07:53:46;;;;;;;6.95;4.32;;;21.40;99.90;;;;;;5031981;28;20034;-75
2023/06/10 07:56:12;;;;;;;9.57;4.93;;;21.40;99.90;;;;;;5031739;28;20048;-76
2023/06/10 07:58:38;;;;;;;15.90;6.45;;;21.50;99.90;;;;;;5048383;28;20069;-73
2023/06/10 08:01:04;;;;;;;9.30;4.80;;;21.50;99.90;;;;;;5047580;28;20049;-76
2023/06/10 08:03:29;;;;;;;7.55;4.80;;;21.70;99.90;;;;;;5031760;28;20116;-75
2023/06/10 08:05:55;;;;;;;9.60;5.15;;;21.80;99.90;;;;;;5048370;28;20445;-77
2023/06/10 08:08:20;;;;;;;7.28;4.70;;;21.90;99.90;;;;;;5030778;28;20037;-76
2023/06/10 08:10:46;;;;;;;7.72;4.47;;;21.90;99.90;;;;;;5031727;28;20064;-75
2023/06/10 08:13:12;;;;;;;7.97;4.45;;;22.00;99.90;;;;;;5030653;28;20048;-75
2023/06/10 08:15:37;;;;;;;9.05;4.13;;;22.10;99.90;;;;;;5030363;28;20745;-77
2023/06/10 08:18:03;;;;;;;7.82;4.28;;;22.20;99.90;;;;;;5044743;28;20044;-74
2023/06/10 08:20:29;;;;;;;8.55;4.53;;;22.30;99.90;;;;;;5031123;28;20087;-74
2023/06/10 08:22:54;;;;;;;6.97;4.20;;;22.30;99.90;;;;;;5025049;28;20037;-74
2023/06/10 08:25:22;;;;;;;6.35;3.95;;;22.40;99.90;;;;;;5026027;28;20060;-75
2023/06/10 08:27:47;;;;;;;5.35;3.80;;;22.40;99.90;;;;;;5046612;28;20041;-75
2023/06/10 08:30:13;;;;;;;7.70;4.38;;;22.40;99.90;;;;;;5046543;28;20545;-75
2023/06/10 08:32:38;;;;;;;7.82;4.32;;;22.60;99.90;;;;;;5036506;28;20053;-75
2023/06/10 08:35:04;;;;;;;8.13;3.92;;;22.60;99.90;;;;;;5030712;28;20124;-75
2023/06/10 08:37:30;;;;;;;7.18;4.68;;;22.60;99.90;;;;;;5030476;28;20046;-75
2023/06/10 08:39:55;;;;;;;9.38;4.10;;;22.70;99.90;;;;;;5047713;28;20033;-75
2023/06/10 08:42:30;;;;;;;8.18;4.13;;;22.70;99.90;;;;;;5047634;28;21469;-75
2023/06/10 08:44:56;;;;;;;6.50;3.50;;;22.80;99.90;;;;;;5031206;28;20040;-76
2023/06/10 08:47:24;;;;;;;7.28;3.90;;;22.80;99.90;;;;;;5047419;28;20041;-75
2023/06/10 08:49:52;;;;;;;8.00;4.20;;;22.90;99.90;;;;;;5032193;28;20030;-74
2023/06/10 08:52:19;;;;;;;6.97;4.03;;;22.90;99.90;;;;;;5047125;28;20099;-75
2023/06/10 08:54:54;;;;;;;5.75;3.92;;;22.90;99.90;;;;;;5030685;28;20558;-75
2023/06/10 08:57:21;;;;;;;7.10;4.07;;;22.90;99.90;;;;;;5030568;28;20068;-75
2023/06/10 08:59:47;;;;;;;5.97;3.55;;;22.90;99.90;;;;;;5031042;28;20045;-77
2023/06/10 09:02:14;;;;;;;7.63;3.80;;;22.90;99.90;;;;;;5031501;28;20040;-75
2023/06/10 09:04:43;;;;;;;7.07;4.15;;;22.90;99.90;;;;;;5030684;28;20045;-75
2023/06/10 09:07:09;;;;;;;8.32;4.13;;;22.90;99.90;;;;;;5029556;28;20509;-75
2023/06/10 09:09:35;;;;;;;6.90;3.55;;;23.00;99.90;;;;;;5029256;28;20033;-76
2023/06/10 09:12:00;;;;;;;5.55;3.47;;;23.00;99.90;;;;;;5037821;28;20038;-75
2023/06/10 09:14:26;;;;;;;6.80;3.53;;;23.00;99.90;;;;;;5025336;28;20034;-74
2023/06/10 09:16:56;;;;;;;5.93;3.72;;;23.10;99.90;;;;;;5045920;28;20037;-75
2023/06/10 09:19:22;;;;;;;7.30;3.70;;;23.10;99.90;;;;;;5030294;28;20045;-74
2023/06/10 09:21:48;;;;;;;7.90;3.83;;;23.20;99.90;;;;;;5024535;28;20038;-76
2023/06/10 09:24:14;;;;;;;8.07;4.22;;;23.20;99.90;;;;;;5011046;28;20092;-75
2023/06/10 09:26:42;;;;;;;6.88;3.65;;;23.40;99.90;;;;;;5042967;28;20493;-75
2023/06/10 09:29:09;;;;;;;7.38;3.80;;;23.50;99.90;;;;;;5046175;28;20034;-75
2023/06/10 09:31:36;;;;;;;9.90;3.90;;;23.50;99.90;;;;;;5029983;28;20135;-76
2023/06/10 09:34:16;;;;;;;9.23;3.53;;;23.50;99.90;;;;;;5030632;28;20041;-75
2023/06/10 09:36:42;;;;;;;7.30;3.70;;;23.60;99.90;;;;;;5025695;28;20397;-76
2023/06/10 09:39:16;;;;;;;7.97;3.92;;;23.60;99.90;;;;;;5046304;28;20045;-76
2023/06/10 09:41:42;;;;;;;6.97;3.88;;;23.60;99.90;;;;;;5024937;28;20536;-76
2023/06/10 09:44:16;;;;;;;7.50;3.50;;;23.70;99.90;;;;;;5046219;28;20176;-75
2023/06/10 09:46:44;;;;;;;8.35;3.63;;;23.70;99.90;;;;;;5022517;28;20048;-75
2023/06/10 09:49:10;;;;;;;7.95;3.72;;;23.80;99.90;;;;;;5027758;28;20042;-76
2023/06/10 09:51:36;;;;;;;13.60;3.95;;;23.90;99.90;;;;;;5029136;28;20033;-76
2023/06/10 09:54:04;;;;;;;8.63;3.50;;;23.90;99.90;;;;;;5029319;28;20058;-76
2023/06/10 09:56:36;;;;;;;5.78;3.55;;;23.90;99.90;;;;;;5027203;28;20045;-74
2023/06/10 09:59:04;;;;;;;11.80;3.80;;;24.00;99.90;;;;;;5044478;28;20037;-76
2023/06/10 10:01:31;;;;;;;6.30;3.40;;;24.00;99.90;;;;;;5027504;28;20400;-74
2023/06/10 10:03:57;;;;;;;14.82;3.95;;;24.20;99.90;;;;;;5029537;28;20513;-76
2023/06/10 10:06:23;;;;;;;9.50;3.42;;;24.30;99.90;;;;;;5028590;28;20037;-75
2023/06/10 10:08:50;;;;;;;6.65;3.25;;;24.30;99.90;;;;;;5029474;28;20497;-74
2023/06/10 10:11:19;;;;;;;6.85;3.08;;;24.30;99.90;;;;;;5029207;28;20042;-75
2023/06/10 10:13:49;;;;;;;8.63;3.47;;;24.40;99.90;;;;;;5029479;28;20030;-76
2023/06/10 10:16:18;;;;;;;6.60;3.30;;;24.40;99.90;;;;;;5028406;28;20090;-75
2023/06/10 10:18:58;;;;;;;7.30;3.63;;;24.50;99.90;;;;;;5027894;28;20172;-76
2023/06/10 10:21:30;;;;;;;6.10;3.33;;;24.50;99.90;;;;;;5044023;28;20057;-76
2023/06/10 10:24:09;;;;;;;6.10;3.50;;;24.60;99.90;;;;;;5027691;28;20111;-76
2023/06/10 10:26:37;;;;;;;7.22;3.30;;;24.70;99.90;;;;;;5044153;28;20385;-76
2023/06/10 10:29:19;;;;;;;6.10;3.25;;;24.80;99.90;;;;;;5027859;28;20037;-75
2023/06/10 10:31:46;;;;;;;8.10;3.20;;;24.90;99.90;;;;;;5027785;28;20156;-76
2023/06/10 10:34:28;;;;;;;8.57;3.28;;;25.00;99.90;;;;;;5046028;28;20045;-73
2023/06/10 10:36:54;;;;;;;3.75;2.90;;;25.10;99.90;;;;;;5024148;28;20053;-76
2023/06/10 10:39:20;;;;;;;4.18;2.78;;;25.20;99.90;;;;;;5046047;28;20608;-76
2023/06/10 10:41:47;;;;;;;8.90;3.20;;;25.30;99.90;;;;;;5029400;28;20120;-76
2023/06/10 10:44:14;;;;;;;6.18;2.83;;;25.40;99.90;;;;;;5045597;28;20091;-74
2023/06/10 10:46:50;;;;;;;6.25;3.03;;;25.50;99.90;;;;;;5029284;28;20041;-77
2023/06/10 10:49:17;;;;;;;8.20;3.00;;;25.60;99.90;;;;;;5029811;28;20511;-75
2023/06/10 10:51:59;;;;;;;4.75;3.08;;;25.70;99.90;;;;;;5029089;28;20048;-74
2023/06/10 10:54:33;;;;;;;5.63;2.70;;;25.80;99.90;;;;;;5045867;28;20049;-75
2023/06/10 10:57:12;;;;;;;;;;;25.90;99.90;;;;;;5025038;28;20067;-75
2023/06/10 10:59:52;;;;;;;5.82;3.08;;;26.00;99.90;;;;;;5019251;28;19917;-76
2023/06/10 11:02:19;;;;;;;6.30;3.20;;;26.00;99.90;;;;;;5026268;28;20053;-76
2023/06/10 11:04:46;;;;;;;5.80;2.60;;;26.20;99.90;;;;;;5045737;28;20073;-76
2023/06/10 11:07:15;;;;;;;4.60;2.78;;;26.30;99.90;;;;;;5028922;28;20098;-76
2023/06/10 11:10:00;;;;;;;5.80;3.00;;;26.50;99.90;;;;;;5045881;28;20536;-76
2023/06/10 11:12:57;;;;;;;8.60;3.50;;;26.50;99.90;;;;;;5028600;28;20045;-76
2023/06/10 11:15:29;;;;;;;6.60;3.10;;;26.70;99.90;;;;;;5029010;28;20042;-76
2023/06/10 11:18:09;;;;;;;5.30;3.00;;;26.70;99.90;;;;;;5046469;28;20486;-76
2023/06/10 11:20:55;;;;;;;6.07;2.80;;;26.80;99.90;;;;;;5032806;28;20042;-76
2023/06/10 11:23:32;;;;;;;5.30;3.28;;;27.00;99.90;;;;;;5049161;28;20537;-75
2023/06/10 11:26:26;;;;;;;5.10;3.10;;;27.20;99.90;;;;;;5032602;28;20052;-76
2023/06/10 11:28:55;;;;;;;8.00;3.00;;;27.20;99.90;;;;;;5032798;28;20037;-76
2023/06/10 11:31:27;;;;;;;6.63;3.15;;;27.50;99.90;;;;;;5032088;28;20405;-76
2023/06/10 11:34:03;;;;;;;7.77;2.87;;;27.50;99.90;;;;;;5049265;28;20033;-77
2023/06/10 11:36:28;;;;;;;7.80;2.90;;;27.60;99.20;;;;;;5049087;28;20045;-76
2023/06/10 11:38:59;;;;;;;6.90;3.38;;;27.70;99.00;;;;;;5030086;28;20511;-75
2023/06/10 11:41:26;;;;;;;5.93;2.95;;;27.90;99.10;;;;;;5047753;28;20132;-76
2023/06/10 11:43:56;;;;;;;4.30;2.67;;;28.20;99.20;;;;;;5048757;28;20037;-76
2023/06/10 11:46:22;;;;;;;5.18;3.00;;;28.20;98.40;;;;;;5031889;28;20045;-75
2023/06/10 11:48:56;;;;;;;4.90;2.97;;;28.30;98.20;;;;;;5032093;28;20040;-75
2023/06/10 11:51:21;;;;;;;;;;;28.50;97.70;;;;;;5046858;28;20074;-76
2023/06/10 11:53:50;;;;;;;3.97;2.55;;;28.60;98.00;;;;;;5030995;28;19939;-75
2023/06/10 11:56:20;;;;;;;7.20;3.30;;;28.80;97.10;;;;;;5030975;28;20044;-76
2023/06/10 11:58:53;;;;;;;5.45;3.25;;;28.90;97.10;;;;;;5031381;28;20124;-74
2023/06/10 12:01:23;;;;;;;5.82;3.10;;;29.10;97.30;;;;;;5045526;28;20042;-76
2023/06/10 12:04:00;;;;;;;4.00;2.53;;;29.20;97.00;;;;;;5030897;28;20134;-75
2023/06/10 12:06:26;;;;;;;6.15;2.63;;;29.30;96.00;;;;;;5028450;28;20145;-76
2023/06/10 12:08:51;;;;;;;5.13;2.80;;;29.20;95.60;;;;;;5029686;28;20124;-74
2023/06/10 12:11:17;;;;;;;5.93;3.05;;;29.40;95.60;;;;;;5030399;28;20068;-76
2023/06/10 12:13:50;;;;;;;6.95;3.08;;;29.50;95.60;;;;;;5030733;28;20034;-76
2023/06/10 12:16:17;;;;;;;4.07;2.70;;;29.60;95.20;;;;;;5030888;28;20049;-76
2023/06/10 12:18:46;;;;;;;5.32;2.72;;;29.80;94.90;;;;;;5031199;28;20030;-76
2023/06/10 12:21:20;;;;;;;5.07;3.13;;;29.80;94.10;;;;;;5027649;28;20057;-77
2023/06/10 12:24:07;;;;;;;5.28;2.97;;;29.80;94.10;;;;;;5031130;28;20033;-77
2023/06/10 12:26:41;;;;;;;7.47;2.90;;;30.00;94.90;;;;;;5029473;28;20041;-75
2023/06/10 12:29:27;;;;;;;5.53;2.80;;;30.10;94.30;;;;;;5028600;28;20148;-75
2023/06/10 12:32:05;;;;;;;3.65;2.65;;;30.20;93.90;;;;;;5025015;28;20409;-76
2023/06/10 12:34:35;;;;;;;5.55;2.80;;;30.30;94.10;;;;;;5047696;28;20496;-75
2023/06/10 12:37:03;;;;;;;5.50;2.90;;;30.40;93.80;;;;;;5031126;28;20052;-74
2023/06/10 12:39:29;;;;;;;27.30;4.35;;;30.40;93.40;;;;;;5047795;28;20050;-75
2023/06/10 12:41:54;;;;;;;4.43;2.58;;;30.30;92.80;;;;;;5030834;28;20033;-76
2023/06/10 12:44:29;;;;;;;4.28;2.90;;;30.40;92.60;;;;;;5047774;28;20045;-76
2023/06/10 12:46:55;;;;;;;6.03;3.00;;;30.50;92.70;;;;;;5047576;28;20087;-75
2023/06/10 12:49:21;;;;;;;6.13;2.88;;;30.60;92.40;;;;;;5031090;28;20195;-75